KDUC/DUC METAR and TAF weather

Enter ICAO airport designator
Station Type Date Time Source
KDUC METAR 2018/04/23 11:15 UTC NOAA

KDUC 231115Z AUTO 31007KT 7SM CLR 08/07 A3009 RMK AO2 T00810070


Station Type Date Time Source
KDUC Decoded METAR 2018/04/23 11:15 UTC NOAA

Duncan, Halliburton Field Airport, OK, United States (KDUC) 34-28-15N 097-57-36W
Apr 23, 2018 - 07:15 AM EDT / 2018.04.23 1115 UTC
Wind: from the NW (310 degrees) at 8 MPH (7 KT):0
Visibility: 7 mile(s):0
Sky conditions: clear
Temperature: 46.6 F (8.1 C)
Dew Point: 44.6 F (7.0 C)
Relative Humidity: 92%
Pressure (altimeter): 30.09 in. Hg (1018 hPa)
ob: KDUC 231115Z AUTO 31007KT 7SM CLR 08/07 A3009 RMK AO2 T00810070
cycle: 11

Station Type Date Time Source
KDUC TAF UTC NOAA

Error!


Example: see airport list